createdAt,value
2018-08-04T00:01:48.546Z,1.90
2018-08-04T00:04:17.601Z,1.97
2018-08-04T00:06:46.575Z,1.80
2018-08-04T00:09:15.586Z,1.83
2018-08-04T00:11:44.617Z,1.90
2018-08-04T00:14:13.785Z,1.70
2018-08-04T00:16:42.774Z,2.17
2018-08-04T00:19:11.770Z,1.57
2018-08-04T00:21:40.739Z,1.70
2018-08-04T00:24:09.827Z,1.60
2018-08-04T00:26:38.807Z,1.40
2018-08-04T00:29:07.845Z,1.27
2018-08-04T00:31:36.831Z,1.97
2018-08-04T00:34:06.047Z,1.53
2018-08-04T00:36:35.055Z,1.77
2018-08-04T00:39:05.091Z,1.53
2018-08-04T00:41:34.159Z,1.60
2018-08-04T00:44:03.272Z,1.83
2018-08-04T00:46:32.352Z,1.57
2018-08-04T00:49:01.462Z,1.93
2018-08-04T00:51:30.438Z,1.60
2018-08-04T00:53:59.431Z,1.10
2018-08-04T00:56:28.411Z,1.43
2018-08-04T00:58:57.414Z,1.43
2018-08-04T01:01:26.375Z,1.30
2018-08-04T01:03:55.394Z,1.20
2018-08-04T01:06:24.622Z,1.10
2018-08-04T01:08:59.435Z,1.47
2018-08-04T01:11:28.522Z,1.50
2018-08-04T01:13:57.671Z,1.50
2018-08-04T01:16:26.826Z,1.00
2018-08-04T01:18:55.863Z,1.57
2018-08-04T01:21:24.894Z,1.67
2018-08-04T01:23:53.891Z,1.20
2018-08-04T01:26:22.895Z,1.60
2018-08-04T01:28:51.899Z,1.60
2018-08-04T01:31:20.875Z,1.93
2018-08-04T01:33:49.903Z,1.60
2018-08-04T01:36:18.847Z,1.60
2018-08-04T01:38:47.869Z,1.57
2018-08-04T01:41:16.907Z,1.80
2018-08-04T01:43:46.103Z,1.60
2018-08-04T01:46:15.105Z,1.60
2018-08-04T01:48:44.131Z,1.87
2018-08-04T01:51:13.099Z,2.03
2018-08-04T01:53:42.157Z,1.87
2018-08-04T01:56:11.331Z,1.70
2018-08-04T01:58:40.315Z,2.00
2018-08-04T02:01:09.312Z,2.00
2018-08-04T02:03:38.301Z,1.80
2018-08-04T02:06:11.009Z,1.40
2018-08-04T02:08:40.623Z,1.20
2018-08-04T02:11:09.673Z,1.10
2018-08-04T02:13:38.693Z,1.47
2018-08-04T02:16:07.666Z,1.50
2018-08-04T02:18:36.717Z,1.60
2018-08-04T02:21:05.682Z,1.37
2018-08-04T02:23:34.747Z,1.07
2018-08-04T02:26:03.756Z,1.67
2018-08-04T02:28:32.769Z,1.30
2018-08-04T02:31:01.867Z,1.47
2018-08-04T02:33:30.961Z,1.43
2018-08-04T02:35:59.926Z,1.43
2018-08-04T02:38:28.916Z,1.40
2018-08-04T02:40:57.920Z,1.40
2018-08-04T02:43:26.899Z,1.30
2018-08-04T02:45:55.950Z,1.80
2018-08-04T02:48:24.983Z,1.50
2018-08-04T02:50:54.021Z,1.57
2018-08-04T02:53:22.985Z,1.57
2018-08-04T02:55:52.086Z,1.23
2018-08-04T02:58:21.123Z,1.40
2018-08-04T03:00:50.153Z,1.40
2018-08-04T03:03:19.251Z,1.37
2018-08-04T03:05:48.277Z,1.50
2018-08-04T03:08:17.261Z,1.30
2018-08-04T03:10:46.270Z,1.33
2018-08-04T03:13:15.347Z,1.50
2018-08-04T03:15:44.447Z,1.93
2018-08-04T03:18:13.455Z,1.50
2018-08-04T03:20:42.412Z,1.37
2018-08-04T03:23:12.271Z,1.07
2018-08-04T03:25:41.351Z,1.37
2018-08-04T03:28:10.335Z,1.40
2018-08-04T03:30:39.325Z,1.47
2018-08-04T03:33:08.359Z,1.30
2018-08-04T03:35:37.431Z,1.60
2018-08-04T03:38:06.487Z,1.00
2018-08-04T03:40:35.507Z,1.53
2018-08-04T03:43:04.642Z,1.30
2018-08-04T03:45:33.712Z,1.60
2018-08-04T03:48:02.671Z,1.50
2018-08-04T03:50:31.992Z,1.17
2018-08-04T03:53:00.951Z,1.40
2018-08-04T03:55:29.953Z,1.50
2018-08-04T03:57:58.995Z,1.30
2018-08-04T04:00:27.969Z,1.30
2018-08-04T04:02:57.872Z,1.57
2018-08-04T04:05:26.855Z,1.40
2018-08-04T04:07:55.867Z,1.67
2018-08-04T04:10:24.979Z,1.53
2018-08-04T04:12:53.930Z,1.70
2018-08-04T04:15:22.923Z,1.50
2018-08-04T04:17:51.931Z,1.17
2018-08-04T04:20:21.371Z,1.50
2018-08-04T04:22:50.690Z,1.67
2018-08-04T04:25:19.731Z,1.50
2018-08-04T04:27:48.751Z,1.03
2018-08-04T04:30:17.807Z,1.00
2018-08-04T04:32:47.009Z,1.13
2018-08-04T04:35:16.007Z,1.53
2018-08-04T04:37:44.991Z,1.13
2018-08-04T04:40:14.020Z,1.47
2018-08-04T04:42:43.011Z,1.20
2018-08-04T04:45:12.003Z,1.57
2018-08-04T04:47:41.053Z,1.13
2018-08-04T04:50:10.013Z,1.40
2018-08-04T04:52:39.055Z,1.13
2018-08-04T04:55:08.056Z,1.50
2018-08-04T04:57:37.024Z,1.30
2018-08-04T05:00:06.311Z,1.20
2018-08-04T05:02:35.373Z,1.57
2018-08-04T05:05:05.203Z,2.00
2018-08-04T05:07:34.130Z,1.20
2018-08-04T05:10:03.278Z,1.43
2018-08-04T05:12:32.298Z,1.50
2018-08-04T05:15:01.336Z,1.50
2018-08-04T05:17:30.295Z,1.87
2018-08-04T05:19:59.280Z,2.00
2018-08-04T05:22:28.310Z,1.80
2018-08-04T05:24:57.406Z,1.20
2018-08-04T05:27:26.516Z,1.50
2018-08-04T05:29:55.496Z,1.50
2018-08-04T05:32:24.716Z,1.43
2018-08-04T05:34:53.698Z,1.30
2018-08-04T05:37:22.704Z,1.37
2018-08-04T05:39:51.870Z,1.67
2018-08-04T05:42:20.911Z,1.67
2018-08-04T05:44:49.864Z,1.70
2018-08-04T05:47:18.954Z,1.60
2018-08-04T05:49:47.958Z,1.60
2018-08-04T05:52:17.064Z,1.67
2018-08-04T05:54:46.079Z,2.10
2018-08-04T05:57:15.054Z,2.40
2018-08-04T05:59:44.036Z,1.90
2018-08-04T06:02:13.025Z,2.13
2018-08-04T06:04:42.014Z,2.17
2018-08-04T06:07:11.130Z,1.80
2018-08-04T06:09:40.094Z,2.00
2018-08-04T06:12:09.077Z,9.07
2018-08-04T06:14:38.092Z,8.37
2018-08-04T06:17:07.122Z,7.83
2018-08-04T06:19:36.102Z,6.63
2018-08-04T06:22:05.133Z,4.93
2018-08-04T06:24:34.366Z,3.77
2018-08-04T06:27:03.478Z,3.33
2018-08-04T06:29:32.454Z,2.80
2018-08-04T06:32:01.466Z,2.90
2018-08-04T06:34:30.552Z,2.67
2018-08-04T06:36:59.606Z,2.37
2018-08-04T06:39:28.651Z,2.77
2018-08-04T06:41:57.830Z,1.80
2018-08-04T06:44:26.887Z,2.00
2018-08-04T06:46:56.068Z,1.90
2018-08-04T06:49:25.127Z,1.90
2018-08-04T06:51:54.102Z,1.70
2018-08-04T06:54:23.184Z,1.40
2018-08-04T06:56:52.216Z,1.70
2018-08-04T06:59:21.336Z,1.77
2018-08-04T07:01:50.401Z,1.60
2018-08-04T07:04:19.524Z,2.17
2018-08-04T07:06:48.524Z,1.80
2018-08-04T07:09:17.478Z,1.47
2018-08-04T07:11:47.522Z,1.40
2018-08-04T07:14:16.532Z,1.53
2018-08-04T07:16:45.593Z,1.40
2018-08-04T07:19:14.675Z,1.20
2018-08-04T07:21:43.912Z,1.77
2018-08-04T07:24:12.876Z,1.30
2018-08-04T07:26:41.927Z,1.20
2018-08-04T07:29:10.981Z,1.13
2018-08-04T07:31:39.958Z,1.20
2018-08-04T07:34:08.942Z,1.30
2018-08-04T07:36:38.258Z,1.10
2018-08-04T07:39:08.539Z,0.93
2018-08-04T07:41:38.258Z,1.10
2018-08-04T07:44:07.320Z,1.30
2018-08-04T07:46:36.968Z,1.20
2018-08-04T07:49:06.114Z,1.10
2018-08-04T07:51:35.320Z,1.50
2018-08-04T07:54:04.282Z,1.40
2018-08-04T07:56:33.252Z,1.27
2018-08-04T07:59:03.266Z,1.07
2018-08-04T08:01:32.282Z,1.00
2018-08-04T08:04:01.322Z,1.20
2018-08-04T08:06:30.383Z,1.13
2018-08-04T08:09:01.152Z,1.37
2018-08-04T08:11:30.114Z,1.40
2018-08-04T08:13:59.092Z,1.47
2018-08-04T08:16:28.078Z,0.93
2018-08-04T08:18:57.144Z,1.00
2018-08-04T08:21:26.363Z,1.43
2018-08-04T08:23:55.639Z,1.53
2018-08-04T08:26:24.682Z,1.80
2018-08-04T08:28:53.663Z,1.50
2018-08-04T08:31:22.837Z,1.50
2018-08-04T08:33:51.967Z,1.53
2018-08-04T08:36:20.966Z,1.50
2018-08-04T08:38:50.074Z,1.60
2018-08-04T08:41:19.080Z,1.10
2018-08-04T08:43:48.073Z,1.57
2018-08-04T08:46:17.067Z,1.33
2018-08-04T08:48:46.265Z,1.10
2018-08-04T08:51:15.215Z,1.33
2018-08-04T08:53:44.385Z,1.50
2018-08-04T08:56:13.527Z,1.67
2018-08-04T08:58:42.501Z,1.40
2018-08-04T09:01:11.511Z,1.40
2018-08-04T09:03:40.629Z,1.13
2018-08-04T09:06:09.594Z,1.60
2018-08-04T09:08:38.631Z,1.17
2018-08-04T09:11:07.791Z,1.53
2018-08-04T09:13:37.819Z,1.40
2018-08-04T09:16:06.915Z,1.13
2018-08-04T09:18:35.886Z,1.70
2018-08-04T09:21:04.884Z,1.70
2018-08-04T09:23:33.859Z,1.37
2018-08-04T09:26:02.887Z,1.50
2018-08-04T09:28:31.878Z,1.20
2018-08-04T09:31:00.887Z,1.40
2018-08-04T09:33:29.988Z,1.43
2018-08-04T09:35:58.968Z,1.20
2018-08-04T09:38:27.942Z,1.23
2018-08-04T09:40:57.048Z,1.20
2018-08-04T09:43:26.135Z,1.13
2018-08-04T09:45:55.115Z,1.10
2018-08-04T09:48:24.107Z,1.20
2018-08-04T09:50:53.361Z,1.10
2018-08-04T09:53:22.419Z,0.97
2018-08-04T09:55:51.528Z,1.10
2018-08-04T09:58:20.530Z,1.00
2018-08-04T10:01:58.039Z,1.20
2018-08-04T10:04:27.040Z,1.00
2018-08-04T10:06:56.011Z,1.10
2018-08-04T10:09:25.088Z,1.00
2018-08-04T10:11:54.103Z,1.10
2018-08-04T10:14:23.095Z,1.07
2018-08-04T10:16:52.095Z,0.97
2018-08-04T10:19:21.079Z,1.00
2018-08-04T10:21:50.158Z,1.30
2018-08-04T10:24:19.159Z,1.03
2018-08-04T10:26:48.159Z,1.13
2018-08-04T10:29:17.231Z,0.90
2018-08-04T10:31:46.255Z,1.10
2018-08-04T10:34:15.227Z,1.17
2018-08-04T10:36:44.732Z,0.90
2018-08-04T10:39:13.731Z,1.03
2018-08-04T10:41:42.713Z,0.83
2018-08-04T10:44:11.719Z,1.10
2018-08-04T10:46:40.875Z,0.80
2018-08-04T10:49:09.936Z,0.90
2018-08-04T10:51:38.895Z,0.83
2018-08-04T10:54:08.225Z,0.87
2018-08-04T10:56:37.283Z,0.80
2018-08-04T10:59:06.867Z,1.30
2018-08-04T11:01:36.027Z,0.93
2018-08-04T11:04:05.006Z,0.87
2018-08-04T11:06:33.995Z,1.10
2018-08-04T11:09:03.256Z,0.97
2018-08-04T11:11:32.285Z,1.10
2018-08-04T11:14:01.379Z,0.90
2018-08-04T11:16:30.376Z,1.10
2018-08-04T11:18:59.376Z,1.33
2018-08-04T11:21:28.572Z,1.60
2018-08-04T11:23:57.655Z,1.43
2018-08-04T11:26:26.748Z,1.40
2018-08-04T11:28:55.848Z,1.27
2018-08-04T11:31:24.964Z,1.50
2018-08-04T11:33:54.099Z,1.23
2018-08-04T11:36:23.147Z,1.33
2018-08-04T11:38:52.123Z,1.30
2018-08-04T11:41:21.111Z,1.00
2018-08-04T11:43:50.161Z,1.20
2018-08-04T11:46:19.134Z,1.30
2018-08-04T11:48:48.113Z,1.67
2018-08-04T11:51:17.199Z,1.57
2018-08-04T11:53:46.195Z,1.33
2018-08-04T11:56:15.415Z,1.50
2018-08-04T11:58:44.475Z,1.60
2018-08-04T12:01:13.478Z,1.57
2018-08-04T12:03:42.536Z,1.43
2018-08-04T12:06:11.554Z,1.40
2018-08-04T12:08:40.549Z,1.70
2018-08-04T12:11:09.716Z,1.70
2018-08-04T12:13:38.882Z,1.13
2018-08-04T12:16:07.838Z,1.47
2018-08-04T12:18:36.827Z,1.40
2018-08-04T12:21:05.919Z,1.40
2018-08-04T12:23:34.927Z,1.70
2018-08-04T12:26:03.919Z,1.90
2018-08-04T12:28:32.912Z,1.20
2018-08-04T12:31:01.942Z,1.33
2018-08-04T12:33:30.928Z,1.40
2018-08-04T12:35:59.923Z,1.60
2018-08-04T12:38:28.904Z,1.70
2018-08-04T12:40:58.005Z,1.13
2018-08-04T12:43:27.011Z,1.20
2018-08-04T12:45:56.077Z,1.50
2018-08-04T12:48:28.722Z,1.40
2018-08-04T12:50:59.444Z,1.17
2018-08-04T12:53:28.622Z,1.30
2018-08-04T12:55:58.371Z,1.90
2018-08-04T12:58:27.514Z,1.63
2018-08-04T13:00:56.705Z,1.47
2018-08-04T13:03:25.695Z,1.40
2018-08-04T13:05:54.713Z,1.40
2018-08-04T13:08:23.787Z,1.93
2018-08-04T13:10:52.779Z,1.63
2018-08-04T13:13:21.773Z,2.13
2018-08-04T13:15:50.949Z,1.33
2018-08-04T13:18:20.059Z,2.03
2018-08-04T13:20:49.156Z,1.90
2018-08-04T13:23:18.233Z,1.80
2018-08-04T13:25:47.287Z,1.83
2018-08-04T13:28:16.327Z,1.77
2018-08-04T13:30:45.320Z,1.70
2018-08-04T13:33:14.459Z,1.80
2018-08-04T13:35:43.841Z,1.87
2018-08-04T13:38:12.815Z,2.17
2018-08-04T13:40:41.916Z,1.93
2018-08-04T13:43:11.020Z,1.93
2018-08-04T13:45:40.008Z,2.03
2018-08-04T13:48:08.994Z,1.90
2018-08-04T13:50:38.062Z,1.60
2018-08-04T13:53:07.201Z,2.10
2018-08-04T13:55:36.308Z,1.70
2018-08-04T13:58:05.479Z,2.07
2018-08-04T14:00:34.482Z,1.93
2018-08-04T14:03:03.564Z,1.77
2018-08-04T14:05:32.663Z,2.10
2018-08-04T14:08:01.780Z,1.83
2018-08-04T14:10:30.765Z,1.80
2018-08-04T14:12:59.865Z,2.13
2018-08-04T14:15:28.969Z,1.90
2018-08-04T14:17:57.940Z,1.70
2018-08-04T14:20:26.916Z,1.67
2018-08-04T14:22:56.071Z,1.70
2018-08-04T14:25:25.256Z,1.60
2018-08-04T14:27:54.234Z,1.47
2018-08-04T14:30:23.329Z,1.27
2018-08-04T14:32:52.380Z,1.60
2018-08-04T14:35:21.410Z,1.43
2018-08-04T14:37:50.449Z,1.30
2018-08-04T14:40:19.446Z,1.37
2018-08-04T14:42:48.498Z,1.43
2018-08-04T14:45:17.671Z,1.43
2018-08-04T14:47:46.676Z,1.53
2018-08-04T14:50:15.937Z,1.50
2018-08-04T14:52:44.989Z,1.63
2018-08-04T14:55:13.987Z,1.80
2018-08-04T14:57:42.992Z,2.40
2018-08-04T15:00:11.946Z,3.47
2018-08-04T15:02:41.059Z,4.07
2018-08-04T15:05:10.040Z,4.33
2018-08-04T15:07:39.070Z,3.90
2018-08-04T15:10:08.205Z,4.10
2018-08-04T15:12:37.399Z,4.87
2018-08-04T15:15:07.028Z,5.33
2018-08-04T15:17:36.048Z,5.30
2018-08-04T15:20:05.459Z,5.10
2018-08-04T15:22:34.460Z,5.77
2018-08-04T15:25:03.468Z,7.43
2018-08-04T15:27:33.224Z,7.13
2018-08-04T15:30:02.456Z,7.27
2018-08-04T15:32:31.494Z,7.73
2018-08-04T15:35:00.924Z,9.60
2018-08-04T15:37:29.945Z,7.57
2018-08-04T15:39:58.959Z,8.83
2018-08-04T15:42:28.142Z,9.03
2018-08-04T15:44:57.175Z,8.00
2018-08-04T15:47:26.143Z,8.07
2018-08-04T15:49:55.111Z,7.77
2018-08-04T15:52:24.226Z,8.97
2018-08-04T15:54:53.211Z,8.27
2018-08-04T15:57:22.418Z,7.03
2018-08-04T15:59:51.509Z,7.23
2018-08-04T16:02:20.594Z,5.50
2018-08-04T16:04:49.619Z,4.53
2018-08-04T16:07:18.676Z,3.90
2018-08-04T16:09:47.648Z,4.10
2018-08-04T16:12:16.768Z,4.07
2018-08-04T16:14:45.753Z,3.53
2018-08-04T16:17:14.736Z,3.23
2018-08-04T16:19:43.741Z,3.30
2018-08-04T16:22:13.681Z,3.40
2018-08-04T16:24:42.876Z,3.20
2018-08-04T16:27:12.453Z,3.13
2018-08-04T16:29:41.612Z,4.23
2018-08-04T16:32:10.639Z,2.83
2018-08-04T16:34:39.649Z,3.07
2018-08-04T16:37:08.661Z,3.50
2018-08-04T16:39:37.735Z,3.43
2018-08-04T16:42:06.720Z,4.50
2018-08-04T16:44:35.743Z,4.10
2018-08-04T16:47:05.839Z,4.10
2018-08-04T16:49:34.847Z,3.63
2018-08-04T16:52:03.827Z,3.53
2018-08-04T16:54:32.877Z,3.33
2018-08-04T16:57:01.864Z,3.93
2018-08-04T16:59:30.918Z,3.33
2018-08-04T17:02:00.173Z,3.17
2018-08-04T17:04:29.147Z,3.40
2018-08-04T17:06:58.130Z,2.80
2018-08-04T17:09:27.120Z,2.87
2018-08-04T17:11:56.188Z,2.93
2018-08-04T17:14:25.211Z,3.40
2018-08-04T17:16:54.365Z,2.73
2018-08-04T17:19:23.356Z,2.73
2018-08-04T17:21:52.400Z,2.73
2018-08-04T17:24:21.554Z,2.87
2018-08-04T17:26:51.018Z,2.20
2018-08-04T17:29:20.804Z,2.83
2018-08-04T17:31:50.076Z,2.40
2018-08-04T17:34:19.226Z,2.67
2018-08-04T17:36:48.296Z,2.53
2018-08-04T17:39:17.252Z,2.07
2018-08-04T17:41:46.274Z,2.60
2018-08-04T17:44:15.377Z,2.90
2018-08-04T17:46:44.368Z,2.10
2018-08-04T17:49:13.429Z,2.10
2018-08-04T17:51:42.426Z,2.20
2018-08-04T17:54:11.413Z,2.10
2018-08-04T17:56:40.377Z,2.30
2018-08-04T17:59:09.414Z,2.03
2018-08-04T18:01:38.400Z,1.90
2018-08-04T18:04:13.042Z,2.00
2018-08-04T18:06:44.882Z,2.00
2018-08-04T18:09:13.856Z,2.10
2018-08-04T18:11:42.843Z,1.73
2018-08-04T18:14:11.809Z,2.10
2018-08-04T18:16:40.964Z,2.00
2018-08-04T18:19:10.065Z,1.90
2018-08-04T18:21:39.266Z,1.80
2018-08-04T18:24:08.354Z,1.77
2018-08-04T18:26:37.445Z,2.00
2018-08-04T18:29:06.478Z,1.63
2018-08-04T18:31:35.452Z,2.20
2018-08-04T18:34:04.420Z,1.83
2018-08-04T18:36:33.431Z,1.87
2018-08-04T18:39:02.400Z,1.93
2018-08-04T18:41:31.414Z,1.97
2018-08-04T18:44:00.494Z,2.23
2018-08-04T18:46:29.480Z,2.30
2018-08-04T18:48:58.672Z,1.77
2018-08-04T18:51:27.732Z,1.90
2018-08-04T18:53:57.234Z,2.00
2018-08-04T18:56:26.324Z,1.93
2018-08-04T18:58:55.287Z,1.87
2018-08-04T19:01:24.412Z,2.00
2018-08-04T19:03:53.376Z,1.90
2018-08-04T19:06:22.458Z,1.87
2018-08-04T19:08:51.445Z,2.00
2018-08-04T19:11:20.440Z,2.13
2018-08-04T19:13:49.457Z,2.10
2018-08-04T19:16:18.456Z,1.80
2018-08-04T19:18:47.659Z,2.10
2018-08-04T19:21:16.669Z,1.67
2018-08-04T19:23:45.614Z,1.60
2018-08-04T19:26:14.718Z,1.97
2018-08-04T19:28:43.989Z,1.83
2018-08-04T19:31:13.143Z,2.00
2018-08-04T19:33:42.228Z,1.90
2018-08-04T19:36:11.269Z,1.90
2018-08-04T19:38:40.523Z,2.23
2018-08-04T19:41:09.539Z,2.07
2018-08-04T19:43:38.805Z,1.70
2018-08-04T19:46:08.271Z,1.87
2018-08-04T19:48:37.447Z,1.90
2018-08-04T19:51:06.498Z,1.90
2018-08-04T19:53:35.538Z,1.80
2018-08-04T19:56:04.583Z,2.27
2018-08-04T19:58:33.628Z,1.87
2018-08-04T20:01:02.715Z,1.90
2018-08-04T20:03:31.767Z,1.93
2018-08-04T20:06:00.871Z,2.10
2018-08-04T20:08:29.903Z,2.20
2018-08-04T20:10:59.075Z,2.07
2018-08-04T20:13:28.055Z,1.97
2018-08-04T20:15:57.067Z,2.10
2018-08-04T20:18:26.124Z,2.10
2018-08-04T20:20:55.151Z,1.73
2018-08-04T20:23:24.123Z,1.87
2018-08-04T20:25:53.127Z,1.93
2018-08-04T20:28:22.295Z,1.90
2018-08-04T20:30:51.359Z,1.73
2018-08-04T20:33:20.468Z,1.87
2018-08-04T20:35:49.451Z,1.73
2018-08-04T20:38:18.519Z,1.87
2018-08-04T20:40:47.531Z,2.30
2018-08-04T20:43:16.594Z,2.30
2018-08-04T20:45:45.672Z,2.13
2018-08-04T20:48:16.435Z,2.30
2018-08-04T20:50:45.417Z,2.30
2018-08-04T20:53:14.402Z,2.40
2018-08-04T20:55:43.398Z,2.87
2018-08-04T20:58:12.412Z,2.60
2018-08-04T21:00:43.189Z,2.47
2018-08-04T21:03:13.010Z,2.90
2018-08-04T21:05:42.198Z,3.07
2018-08-04T21:08:11.235Z,2.50
2018-08-04T21:10:40.356Z,3.00
2018-08-04T21:13:09.960Z,3.00
2018-08-04T21:15:39.044Z,2.57
2018-08-04T21:18:08.170Z,2.63
2018-08-04T21:20:37.243Z,2.57
2018-08-04T21:23:06.628Z,2.53
2018-08-04T21:25:35.735Z,2.77
2018-08-04T21:28:04.714Z,2.37
2018-08-04T21:30:33.834Z,2.50
2018-08-04T21:35:31.095Z,2.50
2018-08-04T21:38:00.162Z,2.90
2018-08-04T21:40:29.272Z,2.83
2018-08-04T21:42:58.282Z,2.90
2018-08-04T21:45:27.370Z,2.60
2018-08-04T21:47:56.458Z,2.20
2018-08-04T21:50:25.598Z,2.77
2018-08-04T21:52:54.766Z,2.80
2018-08-04T21:55:23.933Z,2.83
2018-08-04T21:57:52.943Z,2.90
2018-08-04T22:00:21.956Z,2.70
2018-08-04T22:02:57.072Z,2.77
2018-08-04T22:05:26.767Z,3.10
2018-08-04T22:09:04.931Z,3.10
2018-08-04T22:11:33.890Z,2.40
2018-08-04T22:14:02.970Z,2.97
2018-08-04T22:16:31.953Z,2.40
2018-08-04T22:19:00.991Z,2.70
2018-08-04T22:21:30.082Z,2.80
2018-08-04T22:23:59.162Z,2.60
2018-08-04T22:26:28.283Z,2.80
2018-08-04T22:28:57.396Z,3.10
2018-08-04T22:31:26.351Z,3.00
2018-08-04T22:33:55.359Z,2.87
2018-08-04T22:36:24.566Z,3.13
2018-08-04T22:38:53.543Z,3.10
2018-08-04T22:41:22.645Z,3.27
2018-08-04T22:43:51.770Z,2.70
2018-08-04T22:46:21.741Z,3.17
2018-08-04T22:48:51.930Z,3.17
2018-08-04T22:51:29.450Z,3.63
2018-08-04T22:53:58.554Z,3.00
2018-08-04T22:56:27.618Z,2.83
2018-08-04T22:58:56.675Z,3.17
2018-08-04T23:01:25.659Z,2.80
2018-08-04T23:03:54.673Z,3.13
2018-08-04T23:06:23.629Z,3.43
2018-08-04T23:08:52.612Z,3.30
2018-08-04T23:11:21.611Z,3.40
2018-08-04T23:13:50.722Z,3.30
2018-08-04T23:16:19.812Z,3.30
2018-08-04T23:18:48.795Z,3.50
2018-08-04T23:21:17.780Z,3.33
2018-08-04T23:23:46.858Z,2.93
2018-08-04T23:26:15.854Z,3.10
2018-08-04T23:28:44.871Z,3.67
2018-08-04T23:31:14.050Z,3.23
2018-08-04T23:33:43.010Z,3.33
2018-08-04T23:36:11.989Z,2.73
2018-08-04T23:38:41.069Z,2.87
2018-08-04T23:41:10.047Z,2.90
2018-08-04T23:43:39.155Z,3.30
2018-08-04T23:46:08.140Z,3.27
2018-08-04T23:48:37.129Z,2.80
2018-08-04T23:51:06.123Z,3.30
2018-08-04T23:53:35.094Z,2.90
2018-08-04T23:56:04.134Z,3.40
2018-08-04T23:58:33.214Z,3.60
